Time;durP1;ratioP1;P1;durP2;ratioP2;P2;SDS_P1;SDS_P2;PMS_P1;PMS_P2;Temp;Humidity;BMP_temperature;BMP_pressure;BME280_temperature;BME280_humidity;BME280_pressure;Samples;Min_cycle;Max_cycle;Signal;HPM_P1;HPM_P2
2022/09/21 00:01:04;;;;;;;;;;;10.40;84.40;;;;;;5078116;28;19932;-62
2022/09/21 00:03:31;;;;;;;;;;;10.50;84.60;;;;;;5074946;28;20377;-63
2022/09/21 00:06:01;;;;;;;;;;;10.50;84.60;;;;;;5082137;28;20374;-64
2022/09/21 00:08:35;;;;;;;;;;;10.50;84.70;;;;;;5079668;28;20449;-65
2022/09/21 00:11:04;;;;;;;;;;;10.50;84.50;;;;;;5081585;28;20015;-64
2022/09/21 00:13:33;;;;;;;;;;;10.50;84.60;;;;;;5083198;28;21073;-64
2022/09/21 00:16:00;;;;;;;;;;;10.50;84.60;;;;;;5082437;28;19990;-63
2022/09/21 00:18:27;;;;;;;;;;;10.60;84.70;;;;;;5084901;28;19935;-62
2022/09/21 00:20:54;;;;;;;;;;;10.60;84.60;;;;;;5078752;28;19932;-63
2022/09/21 00:23:22;;;;;;;;;;;10.50;84.20;;;;;;5079926;28;19924;-62
2022/09/21 00:25:48;;;;;;;;;;;10.40;84.10;;;;;;5083486;28;19928;-63
2022/09/21 00:28:16;;;;;;;;;;;10.20;84.20;;;;;;5079354;28;19938;-62
2022/09/21 00:30:43;;;;;;;;;;;10.30;84.20;;;;;;5080851;28;19935;-63
2022/09/21 00:33:10;;;;;;;;;;;10.20;84.10;;;;;;5083229;28;19932;-62
2022/09/21 00:35:38;;;;;;;;;;;10.30;84.10;;;;;;5078226;28;19932;-61
2022/09/21 00:38:05;;;;;;;;;;;10.30;84.10;;;;;;5078736;28;20586;-63
2022/09/21 00:40:31;;;;;;;;;;;10.30;84.00;;;;;;5081322;28;20282;-63
2022/09/21 00:43:11;;;;;;;;;;;10.20;84.00;;;;;;5075378;28;19936;-62
2022/09/21 00:45:39;;;;;;;;;;;10.20;84.00;;;;;;5079503;28;19924;-62
2022/09/21 00:48:06;;;;;;;;;;;10.20;83.90;;;;;;5079877;28;20011;-63
2022/09/21 00:50:33;;;;;;;;;;;10.20;84.00;;;;;;5082533;28;19931;-63
2022/09/21 00:53:00;;;;;;;;;;;10.20;84.00;;;;;;5081087;28;19931;-63
2022/09/21 00:55:31;;;;;;;;;;;10.10;84.10;;;;;;5081889;28;19934;-64
2022/09/21 00:57:59;;;;;;;;;;;10.10;84.20;;;;;;5076968;28;19939;-64
2022/09/21 01:00:26;;;;;;;;;;;10.10;84.40;;;;;;5078612;28;19975;-63
2022/09/21 01:03:00;;;;;;;;;;;10.10;84.50;;;;;;5079667;28;20280;-63
2022/09/21 01:05:27;;;;;;;;;;;10.10;84.60;;;;;;5077780;28;19939;-63
2022/09/21 01:07:54;;;;;;;;;;;10.20;84.50;;;;;;5080498;28;20418;-66
2022/09/21 01:10:21;;;;;;;;;;;10.20;84.40;;;;;;5081137;28;20404;-62
2022/09/21 01:12:56;;;;;;;;;;;10.20;84.30;;;;;;5080141;28;19924;-62
2022/09/21 01:15:28;;;;;;;;;;;10.20;84.20;;;;;;5069324;28;19986;-62
2022/09/21 01:18:00;;;;;;;;;;;10.10;84.30;;;;;;5081137;28;19928;-67
2022/09/21 01:20:38;;;;;;;;;;;10.20;84.30;;;;;;5081305;28;19935;-62
2022/09/21 01:23:11;;;;;;;;;;;10.20;84.40;;;;;;5077050;28;19928;-62
2022/09/21 01:25:44;;;;;;;;;;;10.20;84.40;;;;;;5078979;28;19928;-63
2022/09/21 01:28:20;;;;;;;;;;;10.20;84.70;;;;;;5081552;28;20402;-64
2022/09/21 01:30:49;;;;;;;;;;;10.20;84.60;;;;;;5079507;28;19927;-62
2022/09/21 01:33:17;;;;;;;;;;;10.20;84.60;;;;;;5077341;28;19933;-63
2022/09/21 01:35:46;;;;;;;;;;;10.30;84.60;;;;;;5080390;28;19935;-63
2022/09/21 01:38:14;;;;;;;;;;;10.20;84.60;;;;;;5078637;28;19931;-63
2022/09/21 01:40:42;;;;;;;;;;;10.20;84.50;;;;;;5081742;28;19929;-63
2022/09/21 01:43:12;;;;;;;;;;;10.10;84.50;;;;;;5081805;28;19932;-63
2022/09/21 01:45:41;;;;;;;;;;;10.10;84.40;;;;;;5081059;28;19975;-62
2022/09/21 01:48:10;;;;;;;;;;;10.10;84.40;;;;;;5080790;28;19983;-62
2022/09/21 01:50:40;;;;;;;;;;;10.10;84.30;;;;;;5080323;28;19928;-62
2022/09/21 01:53:09;;;;;;;;;;;10.00;84.20;;;;;;5080193;28;19930;-63
2022/09/21 01:55:40;;;;;;;;;;;9.90;84.30;;;;;;5080554;28;19925;-64
2022/09/21 01:58:12;;;;;;;;;;;10.00;84.30;;;;;;5082334;28;19970;-63
2022/09/21 02:00:40;;;;;;;;;;;10.10;84.20;;;;;;5078520;28;20377;-63
2022/09/21 02:03:10;;;;;;;;;;;10.10;84.30;;;;;;5069689;28;19925;-63
2022/09/21 02:05:37;;;;;;;;;;;10.00;84.30;;;;;;5074045;28;20021;-63
2022/09/21 02:08:05;;;;;;;;;;;10.00;84.40;;;;;;5076759;28;19928;-64
2022/09/21 02:10:33;;;;;;;;;;;10.00;84.30;;;;;;5067998;28;19932;-64
2022/09/21 02:13:04;;;;;;;;;;;10.10;83.90;;;;;;5076354;28;19928;-62
2022/09/21 02:15:34;;;;;;;;;;;10.10;83.80;;;;;;5082599;28;20438;-63
2022/09/21 02:18:05;;;;;;;;;;;10.10;83.80;;;;;;5080759;28;20015;-63
2022/09/21 02:20:36;;;;;;;;;;;10.10;83.90;;;;;;5083492;28;19935;-64
2022/09/21 02:23:05;;;;;;;;;;;10.10;84.10;;;;;;5080213;28;19970;-64
2022/09/21 02:25:38;;;;;;;;;;;10.10;84.10;;;;;;5091231;28;20053;-63
2022/09/21 02:28:07;;;;;;;;;;;10.10;83.90;;;;;;5090052;28;19928;-63
2022/09/21 02:30:35;;;;;;;;;;;10.10;83.90;;;;;;5084531;28;20396;-63
2022/09/21 02:33:06;;;;;;;;;;;10.00;84.00;;;;;;5088788;28;19931;-63
2022/09/21 02:35:36;;;;;;;;;;;10.00;84.00;;;;;;5083062;28;19935;-63
2022/09/21 02:38:08;;;;;;;;;;;10.00;84.20;;;;;;5078487;28;19925;-63
2022/09/21 02:40:36;;;;;;;;;;;9.90;84.30;;;;;;5083042;28;20297;-63
2022/09/21 02:43:06;;;;;;;;;;;9.90;84.40;;;;;;5080125;28;19928;-63
2022/09/21 02:45:35;;;;;;;;;;;9.90;84.40;;;;;;5078539;28;19932;-63
2022/09/21 02:48:05;;;;;;;;;;;9.90;84.40;;;;;;5080260;28;19931;-63
2022/09/21 02:50:35;;;;;;;;;;;9.90;84.30;;;;;;5081251;28;19924;-63
2022/09/21 02:53:04;;;;;;;;;;;9.90;84.20;;;;;;5080625;28;20277;-63
2022/09/21 02:55:32;;;;;;;;;;;9.80;84.20;;;;;;5084602;28;19928;-63
2022/09/21 02:58:00;;;;;;;;;;;9.90;84.20;;;;;;5071422;28;19924;-63
2022/09/21 03:00:26;;;;;;;;;;;9.80;84.10;;;;;;5078588;28;19936;-63
2022/09/21 03:02:53;;;;;;;;;;;9.80;84.20;;;;;;5076917;28;19950;-63
2022/09/21 03:05:20;;;;;;;;;;;9.70;84.30;;;;;;5080717;28;19928;-63
2022/09/21 03:07:47;;;;;;;;;;;9.70;84.40;;;;;;5080989;28;19936;-63
2022/09/21 03:10:17;;;;;;;;;;;9.70;84.50;;;;;;5079891;28;19932;-64
2022/09/21 03:12:44;;;;;;;;;;;9.70;84.60;;;;;;5082110;28;20035;-63
2022/09/21 03:15:11;;;;;;;;;;;9.60;84.40;;;;;;5077532;28;20446;-64
2022/09/21 03:17:38;;;;;;;;;;;9.70;84.50;;;;;;5077632;28;19925;-62
2022/09/21 03:20:06;;;;;;;;;;;9.60;84.50;;;;;;5077792;28;19932;-62
2022/09/21 03:22:33;;;;;;;;;;;9.50;84.50;;;;;;5080951;28;20381;-63
2022/09/21 03:25:00;;;;;;;;;;;9.50;84.50;;;;;;5080325;28;20275;-64
2022/09/21 03:27:28;;;;;;;;;;;9.50;84.40;;;;;;5079883;28;19954;-62
2022/09/21 03:29:55;;;;;;;;;;;9.60;84.40;;;;;;5079932;28;19931;-63
2022/09/21 03:32:21;;;;;;;;;;;9.50;84.40;;;;;;5077414;28;19928;-63
2022/09/21 03:34:48;;;;;;;;;;;9.50;84.30;;;;;;5081419;28;19928;-63
2022/09/21 03:37:15;;;;;;;;;;;9.50;84.30;;;;;;5079229;28;19928;-64
2022/09/21 03:39:42;;;;;;;;;;;9.60;84.10;;;;;;5077908;28;19935;-64
2022/09/21 03:42:09;;;;;;;;;;;9.60;83.90;;;;;;5078341;28;19932;-62
2022/09/21 03:44:37;;;;;;;;;;;9.50;84.10;;;;;;5077765;28;20018;-63
2022/09/21 03:47:05;;;;;;;;;;;9.50;84.40;;;;;;5076226;28;19928;-64
2022/09/21 03:49:32;;;;;;;;;;;9.50;84.20;;;;;;5080405;28;20284;-63
2022/09/21 03:52:00;;;;;;;;;;;9.50;84.20;;;;;;5078662;28;19974;-64
2022/09/21 03:54:27;;;;;;;;;;;9.50;84.20;;;;;;5080689;28;19924;-63
2022/09/21 03:56:53;;;;;;;;;;;9.40;84.10;;;;;;5079862;28;20274;-63
2022/09/21 03:59:20;;;;;;;;;;;9.40;84.30;;;;;;5068011;28;19951;-64
2022/09/21 04:01:48;;;;;;;;;;;9.40;84.40;;;;;;5075105;28;19932;-64
2022/09/21 04:04:15;;;;;;;;;;;9.40;84.40;;;;;;5075260;28;20431;-63
2022/09/21 04:06:45;;;;;;;;;;;9.30;84.40;;;;;;5079810;28;19928;-63
2022/09/21 04:09:11;;;;;;;;;;;9.30;84.30;;;;;;5080783;28;19979;-64
2022/09/21 04:11:38;;;;;;;;;;;9.40;84.30;;;;;;5079907;28;19932;-63
2022/09/21 04:14:05;;;;;;;;;;;9.30;84.10;;;;;;5076563;28;19924;-63
2022/09/21 04:16:31;;;;;;;;;;;9.40;84.20;;;;;;5079068;28;20278;-63
2022/09/21 04:19:00;;;;;;;;;;;9.30;84.20;;;;;;5081174;28;19925;-64
2022/09/21 04:21:26;;;;;;;;;;;9.30;84.20;;;;;;5079532;28;20282;-63
2022/09/21 04:23:53;;;;;;;;;;;9.30;84.10;;;;;;5076797;28;19931;-64
2022/09/21 04:26:21;;;;;;;;;;;9.30;84.00;;;;;;5079093;28;20282;-63
2022/09/21 04:28:48;;;;;;;;;;;9.40;83.80;;;;;;5079343;28;20304;-63
2022/09/21 04:31:15;;;;;;;;;;;9.30;83.60;;;;;;5077625;28;20573;-63
2022/09/21 04:33:42;;;;;;;;;;;9.30;83.60;;;;;;5080839;28;19924;-63
2022/09/21 04:36:10;;;;;;;;;;;9.20;83.90;;;;;;5082349;28;19924;-63
2022/09/21 04:38:40;;;;;;;;;;;9.20;83.70;;;;;;5083910;28;20441;-62
2022/09/21 04:41:07;;;;;;;;;;;9.20;83.70;;;;;;5077435;28;19928;-63
2022/09/21 04:43:33;;;;;;;;;;;9.10;83.70;;;;;;5076212;28;19968;-64
2022/09/21 04:46:04;;;;;;;;;;;9.00;83.90;;;;;;5077322;28;19928;-62
2022/09/21 04:48:31;;;;;;;;;;;9.00;83.90;;;;;;5079701;28;19935;-64
2022/09/21 04:50:57;;;;;;;;;;;8.90;83.90;;;;;;5077555;28;19929;-63
2022/09/21 04:53:27;;;;;;;;;;;8.90;84.00;;;;;;5077742;28;19928;-64
2022/09/21 04:55:55;;;;;;;;;;;9.00;84.10;;;;;;5079460;28;19924;-64
2022/09/21 04:58:23;;;;;;;;;;;9.00;83.80;;;;;;5067480;28;19930;-64
2022/09/21 05:00:50;;;;;;;;;;;9.10;83.60;;;;;;5072578;28;20023;-63
2022/09/21 05:03:17;;;;;;;;;;;9.10;83.50;;;;;;5077736;28;19932;-63
2022/09/21 05:05:46;;;;;;;;;;;9.10;83.50;;;;;;5080869;28;19928;-63
2022/09/21 05:08:13;;;;;;;;;;;9.10;83.50;;;;;;5085360;28;19935;-65
2022/09/21 05:10:40;;;;;;;;;;;9.10;83.60;;;;;;5095176;28;19924;-64
2022/09/21 05:13:07;;;;;;;;;;;9.00;83.60;;;;;;5087812;28;19989;-63
2022/09/21 05:15:34;;;;;;;;;;;9.00;83.60;;;;;;5086812;28;19934;-63
2022/09/21 05:18:00;;;;;;;;;;;8.90;83.70;;;;;;5087819;28;19936;-63
2022/09/21 05:20:27;;;;;;;;;;;9.00;83.70;;;;;;5078204;28;20616;-64
2022/09/21 05:22:54;;;;;;;;;;;8.90;83.40;;;;;;5080852;28;19928;-63
2022/09/21 05:25:20;;;;;;;;;;;8.90;83.50;;;;;;5063201;28;19925;-63
2022/09/21 05:27:48;;;;;;;;;;;9.00;83.40;;;;;;5081009;28;19928;-63
2022/09/21 05:30:15;;;;;;;;;;;8.90;83.30;;;;;;5079152;28;19942;-63
2022/09/21 05:32:45;;;;;;;;;;;8.90;83.20;;;;;;5079168;28;19930;-61
2022/09/21 05:35:16;;;;;;;;;;;8.90;83.40;;;;;;5079878;28;19928;-62
2022/09/21 05:37:48;;;;;;;;;;;8.90;83.30;;;;;;5060752;28;20370;-61
2022/09/21 05:40:15;;;;;;;;;;;8.80;83.40;;;;;;5079437;28;19962;-63
2022/09/21 05:42:42;;;;;;;;;;;8.90;83.60;;;;;;5081068;28;19932;-62
2022/09/21 05:45:14;;;;;;;;;;;8.90;83.60;;;;;;5074370;28;19924;-63
2022/09/21 05:47:50;;;;;;;;;;;8.90;83.40;;;;;;5075355;28;20035;-61
2022/09/21 05:50:25;;;;;;;;;;;8.80;83.40;;;;;;5077727;28;20019;-63
2022/09/21 05:52:57;;;;;;;;;;;8.90;83.30;;;;;;5078349;28;19935;-64
2022/09/21 05:55:26;;;;;;;;;;;8.90;83.10;;;;;;5078357;28;19925;-63
2022/09/21 05:57:58;;;;;;;;;;;8.90;83.00;;;;;;5077586;28;19925;-63
2022/09/21 06:00:28;;;;;;;;;;;8.70;83.10;;;;;;5076802;28;19936;-63
2022/09/21 06:03:05;;;;;;;;;;;8.80;83.20;;;;;;5073734;28;19934;-64
2022/09/21 06:05:32;;;;;;;;;;;8.90;83.40;;;;;;5077137;28;19950;-63
2022/09/21 06:07:58;;;;;;;;;;;8.90;83.50;;;;;;5080214;28;19928;-63
2022/09/21 06:10:26;;;;;;;;;;;8.90;83.40;;;;;;5076378;28;19935;-63
2022/09/21 06:12:52;;;;;;;;;;;8.90;83.30;;;;;;5079142;28;20386;-63
2022/09/21 06:15:19;;;;;;;;;;;9.00;83.00;;;;;;5074078;28;19928;-64
2022/09/21 06:17:47;;;;;;;;;;;9.00;82.80;;;;;;5078442;28;20402;-64
2022/09/21 06:20:14;;;;;;;;;;;9.10;82.80;;;;;;5074620;28;20335;-63
2022/09/21 06:22:41;;;;;;;;;;;9.00;82.80;;;;;;5077411;28;20308;-63
2022/09/21 06:25:08;;;;;;;;;;;9.00;82.50;;;;;;5077722;28;19932;-63
2022/09/21 06:27:35;;;;;;;;;;;9.00;82.40;;;;;;5078221;28;21486;-62
2022/09/21 06:30:01;;;;;;;;;;;9.00;82.40;;;;;;5076844;28;19953;-64
2022/09/21 06:32:28;;;;;;;;;;;8.90;82.50;;;;;;5074576;28;20835;-66
2022/09/21 06:34:56;;;;;;;;;;;8.90;82.60;;;;;;5078338;28;19925;-64
2022/09/21 06:37:23;;;;;;;;;;;8.80;82.80;;;;;;5079504;28;19932;-63
2022/09/21 06:39:49;;;;;;;;;;;8.70;82.60;;;;;;5077565;28;20336;-63
2022/09/21 06:42:16;;;;;;;;;;;8.80;82.70;;;;;;5077910;28;20034;-63
2022/09/21 06:44:43;;;;;;;;;;;8.90;82.70;;;;;;5077405;28;19928;-63
2022/09/21 06:47:09;;;;;;;;;;;8.90;82.30;;;;;;5075065;28;19924;-62
2022/09/21 06:49:36;;;;;;;;;;;9.00;82.50;;;;;;5077776;28;19937;-63
2022/09/21 06:52:07;;;;;;;;;;;9.00;82.50;;;;;;5077210;28;19924;-64
2022/09/21 06:54:34;;;;;;;;;;;9.10;82.40;;;;;;5078340;28;19924;-64
2022/09/21 06:57:01;;;;;;;;;;;9.00;82.60;;;;;;5076486;28;19971;-64
2022/09/21 06:59:27;;;;;;;;;;;9.00;82.70;;;;;;5083162;28;20281;-63
2022/09/21 07:01:57;;;;;;;;;;;9.10;82.30;;;;;;5077002;28;19951;-64
2022/09/21 07:04:24;;;;;;;;;;;9.20;82.40;;;;;;5078370;28;19935;-63
2022/09/21 07:06:51;;;;;;;;;;;9.20;82.20;;;;;;5082266;28;19924;-63
2022/09/21 07:09:19;;;;;;;;;;;9.20;82.30;;;;;;5081334;28;20280;-65
2022/09/21 07:11:48;;;;;;;;;;;9.20;82.20;;;;;;5082180;28;20019;-63
2022/09/21 07:14:15;;;;;;;;;;;9.20;82.40;;;;;;5079220;28;20497;-63
2022/09/21 07:16:42;;;;;;;;;;;9.20;82.40;;;;;;5081250;28;20021;-64
2022/09/21 07:19:11;;;;;;;;;;;9.20;82.40;;;;;;5080286;28;19928;-63
2022/09/21 07:21:38;;;;;;;;;;;9.20;82.30;;;;;;5079592;28;19957;-63
2022/09/21 07:24:05;;;;;;;;;;;9.30;82.40;;;;;;5081461;28;19928;-62
2022/09/21 07:26:34;;;;;;;;;;;9.30;82.60;;;;;;5073840;28;19928;-63
2022/09/21 07:29:03;;;;;;;;;;;9.40;82.20;;;;;;5082179;28;20386;-62
2022/09/21 07:31:29;;;;;;;;;;;9.40;82.50;;;;;;5075722;28;20422;-62
2022/09/21 07:33:57;;;;;;;;;;;9.50;82.40;;;;;;5081047;28;19936;-63
2022/09/21 07:36:25;;;;;;;;;;;9.50;82.40;;;;;;5081276;28;19924;-62
2022/09/21 07:38:52;;;;;;;;;;;9.60;82.40;;;;;;5079162;28;19963;-63
2022/09/21 07:41:18;;;;;;;;;;;9.60;82.10;;;;;;5082198;28;19993;-63
2022/09/21 07:43:46;;;;;;;;;;;9.60;82.30;;;;;;5083302;28;20449;-63
2022/09/21 07:46:14;;;;;;;;;;;9.60;82.20;;;;;;5080858;28;19928;-63
2022/09/21 07:48:41;;;;;;;;;;;9.60;82.00;;;;;;5076878;28;19939;-63
2022/09/21 07:51:09;;;;;;;;;;;9.60;82.30;;;;;;5082359;28;19967;-64
2022/09/21 07:53:37;;;;;;;;;;;9.60;82.40;;;;;;5097662;28;19923;-63
2022/09/21 07:56:05;;;;;;;;;;;9.50;82.60;;;;;;5086811;28;20370;-65
2022/09/21 08:01:17;;;;;;;;;;;9.50;82.70;;;;;;5085734;28;20416;-64
2022/09/21 08:03:44;;;;;;;;;;;9.60;82.80;;;;;;5082135;28;20278;-64
2022/09/21 08:06:11;;;;;;;;;;;9.60;82.80;;;;;;5082368;28;19954;-64
2022/09/21 08:08:38;;;;;;;;;;;9.70;82.90;;;;;;5082918;28;19935;-64
2022/09/21 08:11:05;;;;;;;;;;;9.80;82.90;;;;;;5079664;28;19932;-65
2022/09/21 08:13:32;;;;;;;;;;;9.90;82.60;;;;;;5081604;28;19970;-63
2022/09/21 08:15:59;;;;;;;;;;;10.00;82.80;;;;;;5083019;28;19928;-66
2022/09/21 08:18:27;;;;;;;;;;;10.20;82.80;;;;;;5078020;28;19934;-64
2022/09/21 08:20:54;;;;;;;;;;;10.30;82.60;;;;;;5082630;28;19935;-64
2022/09/21 08:23:21;;;;;;;;;;;10.50;82.40;;;;;;5082375;28;19940;-64
2022/09/21 08:25:48;;;;;;;;;;;10.50;82.40;;;;;;5083030;28;19939;-64
2022/09/21 08:28:15;;;;;;;;;;;10.70;82.40;;;;;;5082039;28;19978;-65
2022/09/21 08:30:41;;;;;;;;;;;10.90;82.30;;;;;;5081095;28;19924;-65
2022/09/21 08:33:08;;;;;;;;;;;10.80;81.70;;;;;;5082101;28;20373;-64
2022/09/21 08:35:39;;;;;;;;;;;11.00;82.10;;;;;;5082394;28;19924;-63
2022/09/21 08:38:06;;;;;;;;;;;11.00;82.00;;;;;;5076115;28;19969;-65
2022/09/21 08:40:33;;;;;;;;;;;11.00;82.10;;;;;;5076715;28;20041;-64
2022/09/21 08:43:02;;;;;;;;;;;11.20;82.30;;;;;;5080487;28;20019;-65
2022/09/21 08:45:31;;;;;;;;;;;11.40;82.30;;;;;;5081844;28;20445;-65
2022/09/21 08:48:00;;;;;;;;;;;11.60;82.10;;;;;;5083484;28;19962;-64
2022/09/21 08:50:30;;;;;;;;;;;11.50;82.00;;;;;;5071590;28;19944;-66
2022/09/21 08:53:01;;;;;;;;;;;11.70;82.00;;;;;;5081547;28;20014;-63
2022/09/21 08:55:28;;;;;;;;;;;11.80;81.80;;;;;;5083629;28;19932;-63
2022/09/21 08:57:54;;;;;;;;;;;12.00;81.70;;;;;;5082548;28;19928;-63
2022/09/21 09:00:21;;;;;;;;;;;12.10;81.90;;;;;;5076877;28;20462;-64
2022/09/21 09:03:00;;;;;;;;;;;12.20;82.30;;;;;;5080280;28;20422;-64
2022/09/21 09:05:33;;;;;;;;;;;12.30;82.10;;;;;;5083131;28;19966;-63
2022/09/21 09:08:09;;;;;;;;;;;12.40;82.10;;;;;;5082202;28;19939;-64
2022/09/21 09:10:37;;;;;;;;;;;12.60;81.70;;;;;;5080454;28;19940;-64
2022/09/21 09:13:12;;;;;;;;;;;12.60;81.80;;;;;;5080633;28;20389;-64
2022/09/21 09:15:45;;;;;;;;;;;12.70;81.80;;;;;;5082531;28;20031;-64
2022/09/21 09:18:15;;;;;;;;;;;12.90;81.40;;;;;;5081682;28;19928;-64
2022/09/21 09:20:43;;;;;;;;;;;13.10;80.70;;;;;;5079233;28;20019;-64
2022/09/21 09:23:14;;;;;;;;;;;13.20;80.40;;;;;;5081992;28;19924;-64
2022/09/21 09:25:42;;;;;;;;;;;13.30;80.20;;;;;;5071867;28;20323;-64
2022/09/21 09:28:22;;;;;;;;;;;13.30;80.00;;;;;;5075098;28;19928;-64
2022/09/21 09:30:54;;;;;;;;;;;13.50;79.60;;;;;;5079127;28;19928;-64
2022/09/21 09:33:23;;;;;;;;;;;13.60;78.80;;;;;;5054608;28;19939;-63
2022/09/21 09:35:52;;;;;;;;;;;13.70;78.40;;;;;;5080406;28;19924;-64
2022/09/21 09:38:24;;;;;;;;;;;13.90;78.30;;;;;;5081786;28;19925;-64
2022/09/21 09:40:57;;;;;;;;;;;14.00;77.60;;;;;;5082755;28;20392;-64
2022/09/21 09:43:34;;;;;;;;;;;14.20;77.00;;;;;;5079446;28;20386;-64
2022/09/21 09:46:09;;;;;;;;;;;14.30;75.70;;;;;;5080996;28;19929;-65
2022/09/21 09:48:45;;;;;;;;;;;14.40;75.90;;;;;;5081702;28;19924;-64
2022/09/21 09:51:12;;;;;;;;;;;14.40;76.20;;;;;;5078860;28;19938;-64
2022/09/21 09:53:41;;;;;;;;;;;14.50;76.10;;;;;;5077983;28;20378;-62
2022/09/21 09:56:09;;;;;;;;;;;14.60;76.30;;;;;;5081570;28;19928;-64
2022/09/21 09:58:39;;;;;;;;;;;14.60;76.30;;;;;;5081527;28;19954;-65
2022/09/21 10:01:06;;;;;;;;;;;14.70;76.00;;;;;;5075916;28;19935;-64
2022/09/21 10:03:32;;;;;;;;;;;14.80;75.70;;;;;;5079953;28;19928;-64
2022/09/21 10:05:59;;;;;;;;;;;14.90;74.80;;;;;;5080514;28;19931;-63
2022/09/21 10:08:27;;;;;;;;;;;15.00;74.80;;;;;;5080137;28;20277;-64
2022/09/21 10:10:55;;;;;;;;;;;15.10;74.40;;;;;;5082298;28;20335;-64
2022/09/21 10:13:24;;;;;;;;;;;15.20;74.00;;;;;;5081002;28;19931;-64
2022/09/21 10:15:52;;;;;;;;;;;15.30;74.60;;;;;;5079955;28;19929;-64
2022/09/21 10:18:21;;;;;;;;;;;15.40;74.40;;;;;;5081120;28;19934;-65
2022/09/21 10:20:55;;;;;;;;;;;15.40;73.70;;;;;;5081842;28;19924;-65
2022/09/21 10:23:22;;;;;;;;;;;15.50;73.50;;;;;;5063121;28;19928;-63
2022/09/21 10:26:06;;;;;;;;;;;15.60;73.80;;;;;;5081227;28;19940;-65
2022/09/21 10:28:34;;;;;;;;;;;15.70;73.00;;;;;;5081309;28;19924;-63
2022/09/21 10:31:09;;;;;;;;;;;15.80;72.60;;;;;;5081152;28;20026;-64
2022/09/21 10:33:45;;;;;;;;;;;15.80;71.70;;;;;;5082290;28;19924;-65
2022/09/21 10:36:24;;;;;;;;;;;15.90;71.20;;;;;;5091654;28;19952;-65
2022/09/21 10:38:51;;;;;;;;;;;15.90;71.20;;;;;;5099283;28;19932;-64
2022/09/21 10:41:20;;;;;;;;;;;15.90;70.40;;;;;;5075989;28;19924;-74
2022/09/21 10:43:48;;;;;;;;;;;16.00;69.80;;;;;;5096618;28;19987;-65
2022/09/21 10:46:15;;;;;;;;;;;16.00;70.20;;;;;;5087091;28;20055;-66
2022/09/21 10:48:44;;;;;;;;;;;16.10;70.30;;;;;;5085780;28;19928;-65
2022/09/21 10:51:20;;;;;;;;;;;16.10;70.80;;;;;;5083580;28;19931;-66
2022/09/21 10:53:48;;;;;;;;;;;16.20;70.20;;;;;;5084638;28;19928;-65
2022/09/21 10:56:17;;;;;;;;;;;16.20;70.20;;;;;;5086871;28;20385;-65
2022/09/21 10:58:59;;;;;;;;;;;16.30;69.40;;;;;;5084527;28;19924;-66
2022/09/21 11:01:28;;;;;;;;;;;16.30;69.30;;;;;;5079786;28;19951;-65
2022/09/21 11:03:57;;;;;;;;;;;16.40;68.60;;;;;;5083028;28;20370;-65
2022/09/21 11:06:26;;;;;;;;;;;16.40;69.70;;;;;;5085631;28;19946;-66
2022/09/21 11:08:55;;;;;;;;;;;16.50;69.20;;;;;;5084933;28;19947;-66
2022/09/21 11:11:40;;;;;;;;;;;16.50;67.60;;;;;;5085409;28;19935;-66
2022/09/21 11:14:11;;;;;;;;;;;16.50;68.00;;;;;;5083014;28;19928;-66
2022/09/21 11:16:41;;;;;;;;;;;16.60;66.40;;;;;;5082956;28;19928;-66
2022/09/21 11:19:11;;;;;;;;;;;16.60;66.60;;;;;;5084132;28;19928;-66
2022/09/21 11:21:41;;;;;;;;;;;16.60;67.00;;;;;;5083722;28;19935;-66
2022/09/21 11:24:12;;;;;;;;;;;16.60;66.40;;;;;;5083608;28;19924;-66
2022/09/21 11:26:43;;;;;;;;;;;16.70;65.90;;;;;;5085244;28;20369;-66
2022/09/21 11:29:12;;;;;;;;;;;16.70;65.90;;;;;;5083699;28;19935;-66
2022/09/21 11:31:52;;;;;;;;;;;16.80;65.00;;;;;;5084251;28;19924;-67
2022/09/21 11:34:28;;;;;;;;;;;16.80;63.70;;;;;;5083347;28;19932;-66
2022/09/21 11:36:58;;;;;;;;;;;16.80;63.90;;;;;;5084413;28;19924;-66
2022/09/21 11:39:32;;;;;;;;;;;16.80;63.70;;;;;;5084766;28;20011;-66
2022/09/21 11:42:09;;;;;;;;;;;16.90;64.40;;;;;;5082768;28;19935;-66
2022/09/21 11:44:47;;;;;;;;;;;17.00;63.40;;;;;;5084081;28;19928;-66
2022/09/21 11:47:21;;;;;;;;;;;17.10;63.50;;;;;;5084505;28;20408;-65
2022/09/21 11:50:01;;;;;;;;;;;17.10;63.30;;;;;;5079956;28;20020;-65
2022/09/21 11:52:34;;;;;;;;;;;17.20;62.50;;;;;;5083633;28;19945;-66
2022/09/21 11:55:20;;;;;;;;;;;17.20;62.50;;;;;;5083426;28;19928;-66
2022/09/21 11:57:49;;;;;;;;;;;17.20;62.00;;;;;;5082418;28;20010;-66
2022/09/21 12:00:18;;;;;;;;;;;17.30;60.70;;;;;;5079262;28;21791;-66
2022/09/21 12:02:59;;;;;;;;;;;17.20;61.00;;;;;;5082028;28;20354;-66
2022/09/21 12:05:33;;;;;;;;;;;17.10;61.40;;;;;;5079279;28;19935;-66
2022/09/21 12:08:15;;;;;;;;;;;17.10;61.50;;;;;;5081450;28;20448;-67
2022/09/21 12:10:46;;;;;;;;;;;16.90;61.80;;;;;;5077376;28;19925;-66
2022/09/21 12:13:21;;;;;;;;;;;16.80;62.20;;;;;;5079718;28;19924;-65
2022/09/21 12:15:51;;;;;;;;;;;16.60;62.40;;;;;;5082253;28;20030;-66
2022/09/21 12:18:20;;;;;;;;;;;16.60;62.70;;;;;;5082516;28;19928;-67
2022/09/21 12:20:55;;;;;;;;;;;16.50;62.00;;;;;;5082764;28;19935;-68
2022/09/21 12:23:26;;;;;;;;;;;16.40;62.50;;;;;;5079425;28;19935;-67
2022/09/21 12:25:56;;;;;;;;;;;16.30;62.80;;;;;;5083294;28;19935;-67
2022/09/21 12:28:25;;;;;;;;;;;16.20;63.80;;;;;;5082473;28;19928;-68
2022/09/21 12:30:56;;;;;;;;;;;16.10;64.30;;;;;;5081148;28;19931;-67
2022/09/21 12:33:25;;;;;;;;;;;16.10;63.20;;;;;;5081615;28;20460;-67
2022/09/21 12:35:57;;;;;;;;;;;16.00;63.10;;;;;;5081649;28;19925;-68
2022/09/21 12:38:26;;;;;;;;;;;15.90;63.60;;;;;;5082300;28;19935;-68
2022/09/21 12:40:55;;;;;;;;;;;15.90;63.80;;;;;;5077902;28;20602;-68
2022/09/21 12:43:28;;;;;;;;;;;16.00;63.60;;;;;;5079667;28;19924;-67
2022/09/21 12:45:56;;;;;;;;;;;16.10;63.90;;;;;;5081153;28;20366;-67
2022/09/21 12:48:28;;;;;;;;;;;16.20;62.60;;;;;;5081697;28;19931;-68
2022/09/21 12:50:58;;;;;;;;;;;16.30;62.30;;;;;;5082502;28;20404;-67
2022/09/21 12:53:26;;;;;;;;;;;16.30;61.00;;;;;;5081380;28;19951;-68
2022/09/21 12:55:57;;;;;;;;;;;16.40;60.60;;;;;;5080090;28;19984;-68
2022/09/21 12:58:30;;;;;;;;;;;16.50;61.60;;;;;;5081737;28;20011;-68
2022/09/21 13:01:00;;;;;;;;;;;16.50;60.60;;;;;;5079493;28;19973;-68
2022/09/21 13:03:30;;;;;;;;;;;16.50;61.20;;;;;;5081130;28;19985;-67
2022/09/21 13:06:08;;;;;;;;;;;16.60;61.50;;;;;;5072274;28;19960;-67
2022/09/21 13:08:36;;;;;;;;;;;16.60;61.00;;;;;;5077410;28;20316;-67
2022/09/21 13:11:04;;;;;;;;;;;16.60;60.00;;;;;;5081674;28;19934;-67
2022/09/21 13:13:32;;;;;;;;;;;16.50;60.10;;;;;;5069790;28;19968;-68
2022/09/21 13:16:00;;;;;;;;;;;16.50;60.00;;;;;;5062449;28;20049;-68
2022/09/21 13:18:28;;;;;;;;;;;16.50;60.70;;;;;;5080110;28;20285;-67
2022/09/21 13:20:56;;;;;;;;;;;16.60;60.30;;;;;;5086795;28;19925;-68
2022/09/21 13:23:28;;;;;;;;;;;16.60;60.60;;;;;;5092674;28;19942;-68
2022/09/21 13:25:59;;;;;;;;;;;16.60;60.60;;;;;;5083669;28;19970;-66
2022/09/21 13:28:41;;;;;;;;;;;16.60;60.50;;;;;;5090116;28;20681;-66
2022/09/21 13:31:27;;;;;;;;;;;16.60;59.90;;;;;;5078255;28;19951;-66
2022/09/21 13:34:16;;;;;;;;;;;16.70;59.40;;;;;;5059565;28;20393;-70
2022/09/21 13:37:06;;;;;;;;;;;16.70;60.10;;;;;;5080261;28;19954;-67
2022/09/21 13:39:34;;;;;;;;;;;16.80;60.30;;;;;;5079931;28;19932;-70
2022/09/21 13:42:16;;;;;;;;;;;16.90;61.00;;;;;;5081888;28;19932;-70
2022/09/21 13:44:45;;;;;;;;;;;17.00;62.10;;;;;;5075786;28;19926;-69
2022/09/21 13:47:13;;;;;;;;;;;17.00;61.60;;;;;;5076622;28;19928;-71
2022/09/21 13:49:44;;;;;;;;;;;17.00;61.60;;;;;;5075232;28;20032;-67
2022/09/21 13:52:29;;;;;;;;;;;17.10;61.70;;;;;;5076789;28;20412;-69
2022/09/21 13:54:59;;;;;;;;;;;17.00;62.20;;;;;;5080598;28;19928;-69
2022/09/21 13:57:28;;;;;;;;;;;16.90;61.60;;;;;;5080758;28;19924;-69
2022/09/21 14:00:06;;;;;;;;;;;16.90;61.40;;;;;;5075842;28;19925;-70
2022/09/21 14:02:40;;;;;;;;;;;16.90;60.50;;;;;;5080047;28;20275;-68
2022/09/21 14:05:08;;;;;;;;;;;16.90;60.30;;;;;;5077098;28;19928;-69
2022/09/21 14:07:35;;;;;;;;;;;16.90;59.60;;;;;;5079792;28;19925;-70
2022/09/21 14:10:05;;;;;;;;;;;17.00;59.80;;;;;;5081914;28;19932;-69
2022/09/21 14:12:34;;;;;;;;;;;17.00;59.90;;;;;;5079409;28;20357;-69
2022/09/21 14:15:30;;;;;;;;;;;17.00;58.80;;;;;;5083692;28;20355;-69
2022/09/21 14:18:16;;;;;;;;;;;17.10;59.00;;;;;;5083662;28;19928;-69
2022/09/21 14:21:07;;;;;;;;;;;17.10;59.80;;;;;;5078693;28;20012;-70
2022/09/21 14:23:34;;;;;;;;;;;17.10;59.60;;;;;;5080484;28;19928;-69
2022/09/21 14:26:18;;;;;;;;;;;17.10;59.40;;;;;;5083225;28;19928;-69
2022/09/21 14:28:50;;;;;;;;;;;17.10;60.80;;;;;;5080288;28;20347;-70
2022/09/21 14:31:18;;;;;;;;;;;17.00;61.50;;;;;;5082920;28;19932;-69
2022/09/21 14:33:47;;;;;;;;;;;16.90;61.40;;;;;;5081113;28;19934;-73
2022/09/21 14:36:16;;;;;;;;;;;16.90;61.80;;;;;;5082487;28;19974;-69
2022/09/21 14:38:50;;;;;;;;;;;16.80;61.80;;;;;;5085457;28;19924;-69